sensor_id;sensor_type;location;lat;lon;timestamp;temperature;humidity
13835;DHT22;6988;52.614;13.500;2023-04-25T00:01:50;9.10;99.90
13835;DHT22;6988;52.614;13.500;2023-04-25T00:06:42;9.10;99.90
13835;DHT22;6988;52.614;13.500;2023-04-25T00:11:34;9.10;99.90
13835;DHT22;6988;52.614;13.500;2023-04-25T00:16:27;9.10;99.90
13835;DHT22;6988;52.614;13.500;2023-04-25T00:21:22;9.10;99.90
13835;DHT22;6988;52.614;13.500;2023-04-25T00:26:14;9.00;99.90
13835;DHT22;6988;52.614;13.500;2023-04-25T00:31:06;9.00;99.90
13835;DHT22;6988;52.614;13.500;2023-04-25T00:35:58;8.90;99.90
13835;DHT22;6988;52.614;13.500;2023-04-25T00:40:52;8.90;99.90
13835;DHT22;6988;52.614;13.500;2023-04-25T00:45:47;8.90;99.90
13835;DHT22;6988;52.614;13.500;2023-04-25T00:50:40;8.90;99.90
13835;DHT22;6988;52.614;13.500;2023-04-25T00:55:33;8.90;99.90
13835;DHT22;6988;52.614;13.500;2023-04-25T01:00:28;8.90;99.90
13835;DHT22;6988;52.614;13.500;2023-04-25T01:05:20;8.90;99.90
13835;DHT22;6988;52.614;13.500;2023-04-25T01:10:12;8.90;99.90
13835;DHT22;6988;52.614;13.500;2023-04-25T01:15:05;8.90;99.90
13835;DHT22;6988;52.614;13.500;2023-04-25T01:20:00;8.90;99.90
13835;DHT22;6988;52.614;13.500;2023-04-25T01:24:56;8.80;99.90
13835;DHT22;6988;52.614;13.500;2023-04-25T01:29:49;8.80;99.90
13835;DHT22;6988;52.614;13.500;2023-04-25T01:34:41;8.80;99.90
13835;DHT22;6988;52.614;13.500;2023-04-25T01:39:33;8.80;99.90
13835;DHT22;6988;52.614;13.500;2023-04-25T01:44:27;8.90;99.90
13835;DHT22;6988;52.614;13.500;2023-04-25T01:49:19;8.80;99.90
13835;DHT22;6988;52.614;13.500;2023-04-25T01:54:12;8.80;99.90
13835;DHT22;6988;52.614;13.500;2023-04-25T01:59:05;8.80;99.90
13835;DHT22;6988;52.614;13.500;2023-04-25T02:04:19;8.80;99.90
13835;DHT22;6988;52.614;13.500;2023-04-25T02:09:11;8.80;99.90
13835;DHT22;6988;52.614;13.500;2023-04-25T02:14:08;8.90;99.90
13835;DHT22;6988;52.614;13.500;2023-04-25T02:19:11;8.80;99.90
13835;DHT22;6988;52.614;13.500;2023-04-25T02:24:06;8.80;99.90
13835;DHT22;6988;52.614;13.500;2023-04-25T02:28:59;8.80;99.90
13835;DHT22;6988;52.614;13.500;2023-04-25T02:33:51;8.70;99.90
13835;DHT22;6988;52.614;13.500;2023-04-25T02:38:43;8.70;99.90
13835;DHT22;6988;52.614;13.500;2023-04-25T02:43:36;8.70;99.90
13835;DHT22;6988;52.614;13.500;2023-04-25T02:48:28;8.70;99.90
13835;DHT22;6988;52.614;13.500;2023-04-25T02:53:20;8.70;99.90
13835;DHT22;6988;52.614;13.500;2023-04-25T02:58:14;8.70;99.90
13835;DHT22;6988;52.614;13.500;2023-04-25T03:03:12;8.70;99.90
13835;DHT22;6988;52.614;13.500;2023-04-25T03:08:05;8.70;99.90
13835;DHT22;6988;52.614;13.500;2023-04-25T03:12:58;8.60;99.90
13835;DHT22;6988;52.614;13.500;2023-04-25T03:17:50;8.70;99.90
13835;DHT22;6988;52.614;13.500;2023-04-25T03:22:43;8.60;99.90
13835;DHT22;6988;52.614;13.500;2023-04-25T03:27:35;8.70;99.90
13835;DHT22;6988;52.614;13.500;2023-04-25T03:32:27;8.70;99.90
13835;DHT22;6988;52.614;13.500;2023-04-25T03:37:19;8.70;99.90
13835;DHT22;6988;52.614;13.500;2023-04-25T03:42:13;8.70;99.90
13835;DHT22;6988;52.614;13.500;2023-04-25T03:47:07;8.60;99.90
13835;DHT22;6988;52.614;13.500;2023-04-25T03:51:59;8.60;99.90
13835;DHT22;6988;52.614;13.500;2023-04-25T03:56:54;8.60;99.90
13835;DHT22;6988;52.614;13.500;2023-04-25T04:01:51;8.60;99.90
13835;DHT22;6988;52.614;13.500;2023-04-25T04:06:44;8.60;99.90
13835;DHT22;6988;52.614;13.500;2023-04-25T04:11:41;8.60;99.90
13835;DHT22;6988;52.614;13.500;2023-04-25T04:16:33;8.60;99.90
13835;DHT22;6988;52.614;13.500;2023-04-25T04:21:26;8.60;99.90
13835;DHT22;6988;52.614;13.500;2023-04-25T04:26:18;8.60;99.90
13835;DHT22;6988;52.614;13.500;2023-04-25T04:31:22;8.60;99.90
13835;DHT22;6988;52.614;13.500;2023-04-25T04:36:14;8.60;99.90
13835;DHT22;6988;52.614;13.500;2023-04-25T04:41:12;8.60;99.90
13835;DHT22;6988;52.614;13.500;2023-04-25T04:46:33;8.60;99.90
13835;DHT22;6988;52.614;13.500;2023-04-25T04:51:57;8.60;99.90
13835;DHT22;6988;52.614;13.500;2023-04-25T04:57:04;8.60;99.90
13835;DHT22;6988;52.614;13.500;2023-04-25T05:02:22;8.60;99.90
13835;DHT22;6988;52.614;13.500;2023-04-25T05:07:40;8.60;99.90
13835;DHT22;6988;52.614;13.500;2023-04-25T05:12:47;8.60;99.90
13835;DHT22;6988;52.614;13.500;2023-04-25T05:17:59;8.70;99.90
13835;DHT22;6988;52.614;13.500;2023-04-25T05:23:19;8.70;99.90
13835;DHT22;6988;52.614;13.500;2023-04-25T05:28:24;8.70;99.90
13835;DHT22;6988;52.614;13.500;2023-04-25T05:33:38;8.70;99.90
13835;DHT22;6988;52.614;13.500;2023-04-25T05:38:33;8.70;99.90
13835;DHT22;6988;52.614;13.500;2023-04-25T05:43:49;8.80;99.90
13835;DHT22;6988;52.614;13.500;2023-04-25T05:48:48;8.70;99.90
13835;DHT22;6988;52.614;13.500;2023-04-25T05:53:54;8.80;99.90
13835;DHT22;6988;52.614;13.500;2023-04-25T05:58:46;8.80;99.90
13835;DHT22;6988;52.614;13.500;2023-04-25T06:03:40;8.80;99.90
13835;DHT22;6988;52.614;13.500;2023-04-25T06:08:33;8.90;99.90
13835;DHT22;6988;52.614;13.500;2023-04-25T06:13:25;8.90;99.90
13835;DHT22;6988;52.614;13.500;2023-04-25T06:18:17;9.00;99.90
13835;DHT22;6988;52.614;13.500;2023-04-25T06:23:11;9.00;99.90
13835;DHT22;6988;52.614;13.500;2023-04-25T06:28:29;9.00;99.90
13835;DHT22;6988;52.614;13.500;2023-04-25T06:33:21;9.10;99.90
13835;DHT22;6988;52.614;13.500;2023-04-25T06:38:16;9.10;99.90
13835;DHT22;6988;52.614;13.500;2023-04-25T06:43:12;9.10;99.90
13835;DHT22;6988;52.614;13.500;2023-04-25T06:48:22;9.10;99.90
13835;DHT22;6988;52.614;13.500;2023-04-25T06:53:17;9.00;99.90
13835;DHT22;6988;52.614;13.500;2023-04-25T06:58:13;9.00;99.90
13835;DHT22;6988;52.614;13.500;2023-04-25T07:03:28;9.10;99.90
13835;DHT22;6988;52.614;13.500;2023-04-25T07:08:26;9.00;99.90
13835;DHT22;6988;52.614;13.500;2023-04-25T07:13:18;9.10;99.90
13835;DHT22;6988;52.614;13.500;2023-04-25T07:18:10;9.20;99.90
13835;DHT22;6988;52.614;13.500;2023-04-25T07:23:02;9.20;99.90
13835;DHT22;6988;52.614;13.500;2023-04-25T07:27:56;9.10;99.90
13835;DHT22;6988;52.614;13.500;2023-04-25T07:32:48;9.10;99.90
13835;DHT22;6988;52.614;13.500;2023-04-25T07:37:40;9.20;99.90
13835;DHT22;6988;52.614;13.500;2023-04-25T07:42:42;9.40;99.90
13835;DHT22;6988;52.614;13.500;2023-04-25T07:47:37;9.50;99.90
13835;DHT22;6988;52.614;13.500;2023-04-25T07:52:31;9.60;99.90
13835;DHT22;6988;52.614;13.500;2023-04-25T07:57:46;9.50;99.90
13835;DHT22;6988;52.614;13.500;2023-04-25T08:02:39;9.50;99.90
13835;DHT22;6988;52.614;13.500;2023-04-25T08:07:36;9.50;99.90
13835;DHT22;6988;52.614;13.500;2023-04-25T08:12:30;9.60;99.90
13835;DHT22;6988;52.614;13.500;2023-04-25T08:17:23;9.70;99.90
13835;DHT22;6988;52.614;13.500;2023-04-25T08:22:16;9.80;99.90
13835;DHT22;6988;52.614;13.500;2023-04-25T08:27:17;9.80;99.90
13835;DHT22;6988;52.614;13.500;2023-04-25T08:37:26;10.10;99.90
13835;DHT22;6988;52.614;13.500;2023-04-25T08:42:27;10.30;99.90
13835;DHT22;6988;52.614;13.500;2023-04-25T08:47:24;10.60;99.90
13835;DHT22;6988;52.614;13.500;2023-04-25T08:52:22;10.80;99.90
13835;DHT22;6988;52.614;13.500;2023-04-25T08:57:18;11.00;99.90
13835;DHT22;6988;52.614;13.500;2023-04-25T09:02:12;11.20;99.90
13835;DHT22;6988;52.614;13.500;2023-04-25T09:07:07;11.40;99.90
13835;DHT22;6988;52.614;13.500;2023-04-25T09:11:59;11.50;99.90
13835;DHT22;6988;52.614;13.500;2023-04-25T09:17:01;11.50;99.90
13835;DHT22;6988;52.614;13.500;2023-04-25T09:22:10;11.90;99.90
13835;DHT22;6988;52.614;13.500;2023-04-25T09:27:04;12.30;99.90
13835;DHT22;6988;52.614;13.500;2023-04-25T09:32:17;12.40;99.90
13835;DHT22;6988;52.614;13.500;2023-04-25T09:37:16;12.30;99.90
13835;DHT22;6988;52.614;13.500;2023-04-25T09:42:47;12.50;99.90
13835;DHT22;6988;52.614;13.500;2023-04-25T09:47:43;12.70;99.90
13835;DHT22;6988;52.614;13.500;2023-04-25T09:52:38;12.40;99.90
13835;DHT22;6988;52.614;13.500;2023-04-25T09:57:52;12.20;99.90
13835;DHT22;6988;52.614;13.500;2023-04-25T10:02:54;11.90;99.90
13835;DHT22;6988;52.614;13.500;2023-04-25T10:08:08;12.10;99.90
13835;DHT22;6988;52.614;13.500;2023-04-25T10:13:03;12.20;99.90
13835;DHT22;6988;52.614;13.500;2023-04-25T10:17:58;12.20;99.90
13835;DHT22;6988;52.614;13.500;2023-04-25T10:22:51;12.10;99.90
13835;DHT22;6988;52.614;13.500;2023-04-25T10:27:50;12.10;99.90
13835;DHT22;6988;52.614;13.500;2023-04-25T10:32:42;11.90;99.90
13835;DHT22;6988;52.614;13.500;2023-04-25T10:37:37;11.80;99.90
13835;DHT22;6988;52.614;13.500;2023-04-25T10:42:29;11.80;99.90
13835;DHT22;6988;52.614;13.500;2023-04-25T10:47:34;11.90;99.90
13835;DHT22;6988;52.614;13.500;2023-04-25T10:52:27;12.10;99.90
13835;DHT22;6988;52.614;13.500;2023-04-25T10:57:32;12.00;99.90
13835;DHT22;6988;52.614;13.500;2023-04-25T11:02:28;12.10;99.90
13835;DHT22;6988;52.614;13.500;2023-04-25T11:07:29;12.10;99.90
13835;DHT22;6988;52.614;13.500;2023-04-25T11:12:30;12.70;99.90
13835;DHT22;6988;52.614;13.500;2023-04-25T11:17:24;12.70;99.90
13835;DHT22;6988;52.614;13.500;2023-04-25T11:22:16;12.30;99.90
13835;DHT22;6988;52.614;13.500;2023-04-25T11:27:08;11.90;99.90
13835;DHT22;6988;52.614;13.500;2023-04-25T11:32:01;11.50;99.90
13835;DHT22;6988;52.614;13.500;2023-04-25T11:36:53;11.40;99.90
13835;DHT22;6988;52.614;13.500;2023-04-25T11:41:46;11.40;99.90
13835;DHT22;6988;52.614;13.500;2023-04-25T11:46:38;11.40;99.90
13835;DHT22;6988;52.614;13.500;2023-04-25T11:51:38;11.60;99.90
13835;DHT22;6988;52.614;13.500;2023-04-25T11:56:30;11.80;99.90
13835;DHT22;6988;52.614;13.500;2023-04-25T12:01:27;11.90;99.90
13835;DHT22;6988;52.614;13.500;2023-04-25T12:06:20;12.00;99.90
13835;DHT22;6988;52.614;13.500;2023-04-25T12:11:21;12.00;99.90
13835;DHT22;6988;52.614;13.500;2023-04-25T12:16:13;12.10;99.90
13835;DHT22;6988;52.614;13.500;2023-04-25T12:21:05;12.10;99.90
13835;DHT22;6988;52.614;13.500;2023-04-25T12:25:57;12.20;99.90
13835;DHT22;6988;52.614;13.500;2023-04-25T12:30:57;12.30;99.90
13835;DHT22;6988;52.614;13.500;2023-04-25T12:35:51;12.20;99.90
13835;DHT22;6988;52.614;13.500;2023-04-25T12:40:43;12.50;99.90
13835;DHT22;6988;52.614;13.500;2023-04-25T12:45:35;12.50;99.90
13835;DHT22;6988;52.614;13.500;2023-04-25T12:50:28;12.20;99.90
13835;DHT22;6988;52.614;13.500;2023-04-25T12:55:20;11.90;99.90
13835;DHT22;6988;52.614;13.500;2023-04-25T13:00:13;12.00;99.90
13835;DHT22;6988;52.614;13.500;2023-04-25T13:05:08;12.10;99.90
13835;DHT22;6988;52.614;13.500;2023-04-25T13:10:01;12.20;99.90
13835;DHT22;6988;52.614;13.500;2023-04-25T13:14:53;12.20;99.90
13835;DHT22;6988;52.614;13.500;2023-04-25T13:19:45;11.90;99.90
13835;DHT22;6988;52.614;13.500;2023-04-25T13:24:37;11.80;99.90
13835;DHT22;6988;52.614;13.500;2023-04-25T13:29:30;11.60;99.90
13835;DHT22;6988;52.614;13.500;2023-04-25T13:34:25;11.30;99.90
13835;DHT22;6988;52.614;13.500;2023-04-25T13:39:16;11.00;99.90
13835;DHT22;6988;52.614;13.500;2023-04-25T13:44:08;10.90;99.90
13835;DHT22;6988;52.614;13.500;2023-04-25T13:49:02;10.80;99.90
13835;DHT22;6988;52.614;13.500;2023-04-25T13:53:53;10.70;99.90
13835;DHT22;6988;52.614;13.500;2023-04-25T13:58:45;10.60;99.90
13835;DHT22;6988;52.614;13.500;2023-04-25T14:03:37;10.60;99.90
13835;DHT22;6988;52.614;13.500;2023-04-25T14:08:30;10.70;99.90
13835;DHT22;6988;52.614;13.500;2023-04-25T14:13:22;10.80;99.90
13835;DHT22;6988;52.614;13.500;2023-04-25T14:18:15;11.10;99.90
13835;DHT22;6988;52.614;13.500;2023-04-25T14:23:07;11.70;99.90
13835;DHT22;6988;52.614;13.500;2023-04-25T14:28:00;11.80;99.90
13835;DHT22;6988;52.614;13.500;2023-04-25T14:32:52;11.70;99.90
13835;DHT22;6988;52.614;13.500;2023-04-25T14:37:44;11.40;99.90
13835;DHT22;6988;52.614;13.500;2023-04-25T14:54:20;10.80;99.90
13835;DHT22;6988;52.614;13.500;2023-04-25T15:00:54;10.80;99.90
13835;DHT22;6988;52.614;13.500;2023-04-25T15:07:07;10.80;99.90
13835;DHT22;6988;52.614;13.500;2023-04-25T15:11:59;10.70;99.90
13835;DHT22;6988;52.614;13.500;2023-04-25T15:16:50;10.50;99.90
13835;DHT22;6988;52.614;13.500;2023-04-25T15:21:42;10.30;99.90
13835;DHT22;6988;52.614;13.500;2023-04-25T15:26:36;10.40;99.90
13835;DHT22;6988;52.614;13.500;2023-04-25T15:31:27;10.50;99.90
13835;DHT22;6988;52.614;13.500;2023-04-25T15:36:19;11.00;99.90
13835;DHT22;6988;52.614;13.500;2023-04-25T15:41:12;11.20;99.90
13835;DHT22;6988;52.614;13.500;2023-04-25T15:46:05;11.40;99.90
13835;DHT22;6988;52.614;13.500;2023-04-25T15:50:57;11.50;99.90
13835;DHT22;6988;52.614;13.500;2023-04-25T15:55:49;11.30;99.90
13835;DHT22;6988;52.614;13.500;2023-04-25T16:00:41;11.10;99.90
13835;DHT22;6988;52.614;13.500;2023-04-25T16:05:34;10.90;99.90
13835;DHT22;6988;52.614;13.500;2023-04-25T16:10:26;10.80;99.90
13835;DHT22;6988;52.614;13.500;2023-04-25T16:15:18;10.80;99.90
13835;DHT22;6988;52.614;13.500;2023-04-25T16:20:11;10.70;99.90
13835;DHT22;6988;52.614;13.500;2023-04-25T16:25:06;10.60;99.90
13835;DHT22;6988;52.614;13.500;2023-04-25T16:29:58;10.50;99.90
13835;DHT22;6988;52.614;13.500;2023-04-25T16:34:50;10.40;99.90
13835;DHT22;6988;52.614;13.500;2023-04-25T16:39:42;10.20;99.90
13835;DHT22;6988;52.614;13.500;2023-04-25T16:44:35;10.20;99.90
13835;DHT22;6988;52.614;13.500;2023-04-25T16:49:27;10.20;99.90
13835;DHT22;6988;52.614;13.500;2023-04-25T16:54:19;10.10;99.90
13835;DHT22;6988;52.614;13.500;2023-04-25T16:59:10;10.10;99.90
13835;DHT22;6988;52.614;13.500;2023-04-25T17:04:04;10.10;99.90
13835;DHT22;6988;52.614;13.500;2023-04-25T17:08:55;10.20;99.90
13835;DHT22;6988;52.614;13.500;2023-04-25T17:13:47;10.00;99.90
13835;DHT22;6988;52.614;13.500;2023-04-25T17:18:39;9.90;99.90
13835;DHT22;6988;52.614;13.500;2023-04-25T17:23:33;9.70;99.90
13835;DHT22;6988;52.614;13.500;2023-04-25T17:28:25;9.70;99.90
13835;DHT22;6988;52.614;13.500;2023-04-25T17:33:17;9.60;99.90
13835;DHT22;6988;52.614;13.500;2023-04-25T17:38:08;9.50;99.90
13835;DHT22;6988;52.614;13.500;2023-04-25T17:43:01;9.40;99.90
13835;DHT22;6988;52.614;13.500;2023-04-25T17:47:53;9.30;99.90
13835;DHT22;6988;52.614;13.500;2023-04-25T17:52:45;9.20;99.90
13835;DHT22;6988;52.614;13.500;2023-04-25T17:57:37;9.10;99.90
13835;DHT22;6988;52.614;13.500;2023-04-25T18:02:30;9.20;99.90
13835;DHT22;6988;52.614;13.500;2023-04-25T18:07:22;9.10;99.90
13835;DHT22;6988;52.614;13.500;2023-04-25T18:12:14;9.00;99.90
13835;DHT22;6988;52.614;13.500;2023-04-25T18:17:07;9.00;99.90
13835;DHT22;6988;52.614;13.500;2023-04-25T18:22:00;9.00;99.90
13835;DHT22;6988;52.614;13.500;2023-04-25T18:26:52;8.90;99.90
13835;DHT22;6988;52.614;13.500;2023-04-25T18:31:46;8.70;99.90
13835;DHT22;6988;52.614;13.500;2023-04-25T18:36:39;8.80;99.90
13835;DHT22;6988;52.614;13.500;2023-04-25T18:41:35;8.70;99.90
13835;DHT22;6988;52.614;13.500;2023-04-25T18:46:29;8.50;99.90
13835;DHT22;6988;52.614;13.500;2023-04-25T18:51:22;8.40;99.90
13835;DHT22;6988;52.614;13.500;2023-04-25T18:56:17;8.20;99.90
13835;DHT22;6988;52.614;13.500;2023-04-25T19:01:11;8.30;99.90
13835;DHT22;6988;52.614;13.500;2023-04-25T19:06:03;8.10;99.90
13835;DHT22;6988;52.614;13.500;2023-04-25T19:10:55;8.00;99.90
13835;DHT22;6988;52.614;13.500;2023-04-25T19:15:47;8.00;99.90
13835;DHT22;6988;52.614;13.500;2023-04-25T19:20:41;7.90;99.90
13835;DHT22;6988;52.614;13.500;2023-04-25T19:25:34;8.00;99.90
13835;DHT22;6988;52.614;13.500;2023-04-25T19:30:26;7.90;99.90
13835;DHT22;6988;52.614;13.500;2023-04-25T19:35:18;7.80;99.90
13835;DHT22;6988;52.614;13.500;2023-04-25T19:40:13;7.70;99.90
13835;DHT22;6988;52.614;13.500;2023-04-25T19:45:07;7.60;99.90
13835;DHT22;6988;52.614;13.500;2023-04-25T19:49:59;7.50;99.90
13835;DHT22;6988;52.614;13.500;2023-04-25T19:54:51;7.50;99.90
13835;DHT22;6988;52.614;13.500;2023-04-25T19:59:48;7.50;99.90
13835;DHT22;6988;52.614;13.500;2023-04-25T20:04:40;7.40;99.90
13835;DHT22;6988;52.614;13.500;2023-04-25T20:09:32;7.30;99.90
13835;DHT22;6988;52.614;13.500;2023-04-25T20:14:24;7.30;99.90
13835;DHT22;6988;52.614;13.500;2023-04-25T20:19:17;7.20;99.90
13835;DHT22;6988;52.614;13.500;2023-04-25T20:24:09;7.10;99.90
13835;DHT22;6988;52.614;13.500;2023-04-25T20:29:01;7.10;99.90
13835;DHT22;6988;52.614;13.500;2023-04-25T20:33:53;7.00;99.90
13835;DHT22;6988;52.614;13.500;2023-04-25T20:38:46;6.90;99.90
13835;DHT22;6988;52.614;13.500;2023-04-25T20:43:39;6.80;99.90
13835;DHT22;6988;52.614;13.500;2023-04-25T20:48:31;6.80;99.90
13835;DHT22;6988;52.614;13.500;2023-04-25T20:53:23;6.70;99.90
13835;DHT22;6988;52.614;13.500;2023-04-25T20:58:16;6.70;99.90
13835;DHT22;6988;52.614;13.500;2023-04-25T21:03:09;6.70;99.90
13835;DHT22;6988;52.614;13.500;2023-04-25T21:08:02;6.60;99.90
13835;DHT22;6988;52.614;13.500;2023-04-25T21:12:55;6.60;99.90
13835;DHT22;6988;52.614;13.500;2023-04-25T21:17:49;6.60;99.90
13835;DHT22;6988;52.614;13.500;2023-04-25T21:22:42;6.50;99.90
13835;DHT22;6988;52.614;13.500;2023-04-25T21:27:38;6.50;99.90
13835;DHT22;6988;52.614;13.500;2023-04-25T21:32:29;6.40;99.90
13835;DHT22;6988;52.614;13.500;2023-04-25T21:37:22;6.50;99.90
13835;DHT22;6988;52.614;13.500;2023-04-25T21:42:14;6.30;99.90
13835;DHT22;6988;52.614;13.500;2023-04-25T22:05:05;5.80;99.90
13835;DHT22;6988;52.614;13.500;2023-04-25T22:09:58;5.70;99.90
13835;DHT22;6988;52.614;13.500;2023-04-25T22:14:50;5.70;99.90
13835;DHT22;6988;52.614;13.500;2023-04-25T22:19:42;5.60;99.90
13835;DHT22;6988;52.614;13.500;2023-04-25T22:24:36;5.60;99.90
13835;DHT22;6988;52.614;13.500;2023-04-25T22:29:28;5.60;99.90
13835;DHT22;6988;52.614;13.500;2023-04-25T22:34:19;5.60;99.90
13835;DHT22;6988;52.614;13.500;2023-04-25T22:39:11;5.60;99.90
13835;DHT22;6988;52.614;13.500;2023-04-25T22:44:06;5.50;99.90
13835;DHT22;6988;52.614;13.500;2023-04-25T22:48:57;5.50;99.90
13835;DHT22;6988;52.614;13.500;2023-04-25T22:53:49;5.50;99.90
13835;DHT22;6988;52.614;13.500;2023-04-25T22:58:41;5.40;99.90
13835;DHT22;6988;52.614;13.500;2023-04-25T23:03:35;5.40;99.90
13835;DHT22;6988;52.614;13.500;2023-04-25T23:08:27;5.40;99.90
13835;DHT22;6988;52.614;13.500;2023-04-25T23:13:19;5.30;99.90
13835;DHT22;6988;52.614;13.500;2023-04-25T23:18:12;5.20;99.90
13835;DHT22;6988;52.614;13.500;2023-04-25T23:23:05;5.10;99.90
13835;DHT22;6988;52.614;13.500;2023-04-25T23:27:58;5.10;99.90
13835;DHT22;6988;52.614;13.500;2023-04-25T23:32:51;5.10;99.90
13835;DHT22;6988;52.614;13.500;2023-04-25T23:37:43;5.10;99.90
13835;DHT22;6988;52.614;13.500;2023-04-25T23:42:40;5.00;99.90
13835;DHT22;6988;52.614;13.500;2023-04-25T23:47:32;5.00;99.90
13835;DHT22;6988;52.614;13.500;2023-04-25T23:52:25;4.90;99.90
13835;DHT22;6988;52.614;13.500;2023-04-25T23:57:17;4.90;99.90
